L M Clayton Airport
KOLF : now visible

Aeroporto :











RITROVATECI SU...

 
LOGIN :

Iscrizione | Disclaimer

   EN    FR    IT 

 









Sommario :    VFR   VFR Marginale   IFR   IFR Intensivo   IFR Molto Intensivo
Visibilità : 
Base nubi : 
>= 8 km
>= 3000ft
5 / 8 km
1000 / 3000 ft
1500m / 5 km
500 / 1000 ft
800 / 1500m
200 / 500 ft
< 800m
< 200 ft
Simboli :   Temporali  Nebbia  Neve Forte  Precipitazioni Forti  Vento > 20 kt






- Altitudine del aeroporto : 1986 ft


KOLF - L M Clayton

ULTIMO METAR :
  • 240253Z AUTO 29006KT 10SM CLR M04/M07 A2982 RMK AO2 SLP131 T10391072 53019

METARs OBSOLETI :
  • 240153Z AUTO 25006KT 10SM CLR M03/M06 A2979 RMK AO2 SLP120 T10331061
  • 240053Z AUTO 26006KT 10SM CLR M03/M06 A2978 RMK AO2 SLP115 T10331061

TAF KOLF
Valido dal 24 a 00 ore il 25 a 00 ore UTC


232338Z 2400/2424 VRB05KT P6SM OVC180
FM240700 29007KT P6SM FEW035
FM241500 00000KT P6SM SCT080
FIR KZLC / America del Nord



MetMap, La meteo Aeronautica in un colpo d'occhio ! - Copyright ORBIFLY Dicembre 2007 - Disclaimer

ORBIFLY MET'MAP TEAM :

Programmazione e sviluppo : Alexandra Zaïnal
Concezione : Baudouin d'Aumeries
Aiuto per la programmazione : Marc-Olivier Méhu
Supporto tecnico e logistico : Manuel Goepfert
Aiuto per la traduzione : Arnaldo La Scala

Contatto : metmap@orbifly.com




FONTI E CREDITI :

   NOAA       Earth
Advisory